Ana Sayfa
METAR-TAF:

METAR-TAF

Havaalanları :

Taos Regional Airport

Taos, New Mexico, Amerika Birleşik Devletleri

Enlem: 36-27N, Boylam: 105-40W, yükseklik: 2161 m

Güncel hava durumu gözlemi

Rapor saat 10:56 UTC de 48 dakika önce yapıldı.
Rüzgar kuzeydan 9 kt
Sıcaklık 8°C
Nem 57%
Basınç 1019 hPa
Görüş mesafesi: 16.1 km
Açık gökyüzü

METAR: KSKX 161056Z AUTO 01009KT 10SM CLR 08/00 A3010 RMK AO2 SLP120 T00780000

Saat: 05:44 (11:44 UTC)


TAF: eksik

4.000'den fazla havaalanı için hava durumu gözlemleri ve tahminleri (METAR ve TAF raporları).

Kullanılabilir istasyonlar harita üzerinde sarı ve kırmızı noktalarla gösterilir.

İstasyonun adını görmek için fareyi noktanın üzerinde gezdirin.

Sonrasında hava gözlem ve tahminlerini görmek için tıklayın.

Haritayı değiştirmek için: yaklaştırmak için siyah artı işaretli yeşil düğmeye ve uzaklaştırmak için de eksi işaretli düğmeye hızla tıklayın; bitişik haritalar için yeşil okları kullanın.


METAR-TAF: